Terminal Aerodrome Forecast
Issued by NWS Cleveland, OH

Home | Current Version | Previous Version | Graphics & Text | Print | Product List | Glossary On
Versions: 1 2 3 4 5 6 7 8 9 10 11 12 13 14 15 16 17 18 19
000
FTUS41 KCLE 141100
TAFERI
TAF
KERI 141132Z 1412/1512 18014G22KT P6SM SCT050 BKN120 WS014/21045KT
     FM141500 20024G38KT P6SM SCT050 OVC120
      TEMPO 1417/1421 5SM -SHRA OVC050
     FM142100 21018G28KT P6SM -SHRA SCT015 OVC035
      TEMPO 1421/1501 4SM -SHRA BR OVC015
     FM150100 21011G18KT 6SM -SHRA VCTS SCT010CB OVC025
      TEMPO 1501/1503 4SM -SHRA BR OVC010
     FM150300 27012G20KT 5SM -DZ BR OVC003
     FM150800 29014G22KT P6SM OVC006=

USA.gov is the U.S. government's official web portal to all federal, state and local government web resources and services.